WetterOnline ( https://www.wetteronline.at )

Wetter aktuell Langeoog

Aktuelles Wetter: Norderney (16m)

6-stündlich | Neueste Meldungen
Ortszeit Temperatur Wetter
Fr, 14.06. 2:00 13.0° C bewölkt
Do, 13.06. 20:00 14.2° C bedeckt
Do, 13.06. 14:00 11.9° C Regen
Do, 13.06. 8:00 11.4° C bedeckt
Do, 13.06. 2:00 11.4° C leicht bewölkt
Mi, 12.06. 20:00 12.1° C bewölkt
Mi, 12.06. 14:00 12.2° C bewölkt
Mi, 12.06. 8:00 12.2° C leicht bewölkt
Ortszeit Temperatur Wetter
Fr, 14.06. 7:00 13.0° C bedeckt
Fr, 14.06. 6:50 13.0° C leichter Regen
Fr, 14.06. 6:40 12.9° C leichter Regen
Fr, 14.06. 6:30 12.7° C bedeckt
Fr, 14.06. 6:20 12.7° C bedeckt
Fr, 14.06. 6:10 12.6° C bedeckt
Fr, 14.06. 6:00 12.6° C wolkig
Fr, 14.06. 5:30 12.4° C leichter Regen
Fr, 14.06. 5:00 12.3° C wolkig
Fr, 14.06. 4:30 12.5° C leichter Regen
Fr, 14.06. 4:00 12.7° C leichter Regen
Ortszeit Relative Feuchte Sichtweite
Fr, 14.06. 2:00 77% 30 km
Do, 13.06. 20:00 77% 27 km
Do, 13.06. 14:00 85% 20 km
Do, 13.06. 8:00 81% 45 km
Do, 13.06. 2:00 68% 24 km
Mi, 12.06. 20:00 69% 40 km
Mi, 12.06. 14:00 70% 15 km
Mi, 12.06. 8:00 68% 35 km
Ortszeit Relative Feuchte Sichtweite
Fr, 14.06. 7:00 74% 45 km
Fr, 14.06. 6:50 74% -
Fr, 14.06. 6:40 75% -
Fr, 14.06. 6:30 77% 45 km
Fr, 14.06. 6:20 77% -
Fr, 14.06. 6:10 78% -
Fr, 14.06. 6:00 78% 40 km
Fr, 14.06. 5:30 79% 30 km
Fr, 14.06. 5:00 80% 30 km
Fr, 14.06. 4:30 80% 24 km
Fr, 14.06. 4:00 77% 17 km
Ortszeit Niederschlagsmenge Niederschlagsart
Fr, 14.06. 2:00 0.1 l/m2 in 6 Std. Regen
Do, 13.06. 20:00 6 l/m2 in 12 Std. Regen
Do, 13.06. 14:00 6 l/m2 in 6 Std. Regen
Do, 13.06. 8:00 2 l/m2 in 12 Std. Regen
Do, 13.06. 2:00 0.1 l/m2 in 6 Std. Regen
Mi, 12.06. 20:00 0.6 l/m2 in 12 Std. Regen
Mi, 12.06. 14:00 0.4 l/m2 in 6 Std. Regen
Mi, 12.06. 8:00 0.8 l/m2 in 12 Std. Regen
Ortszeit Niederschlagsmenge Niederschlagsart
Fr, 14.06. 7:00 <0.05 l/m2 in 1 Std. Regen
Fr, 14.06. 6:50 keine Meldung -
Fr, 14.06. 6:40 keine Meldung -
Fr, 14.06. 6:30 0.0 l/m2 in 30 Min -
Fr, 14.06. 6:20 keine Meldung -
Fr, 14.06. 6:10 keine Meldung -
Fr, 14.06. 6:00 <0.05 l/m2 in 1 Std. Regen
Fr, 14.06. 5:30 <0.05 l/m2 in 30 Min -
Fr, 14.06. 5:00 0.3 l/m2 in 1 Std. Regen
Fr, 14.06. 4:30 0.3 l/m2 in 30 Min -
Fr, 14.06. 4:00 0.2 l/m2 in 1 Std. Regen
Ortszeit Stärke Spitze Richtung
km/h Bft. km/h Grad Sektor
Fr, 14.06. 2:00 11 2 25 140° SO
Do, 13.06. 20:00 11 2 29 120° SO
Do, 13.06. 14:00 14 3 32 190° S
Do, 13.06. 8:00 14 3 47 230° SW
Do, 13.06. 2:00 28 4 46 290° W
Mi, 12.06. 20:00 35 5 48 290° W
Mi, 12.06. 14:00 29 5 47 290° W
Mi, 12.06. 8:00 26 4 46 300° NW
Ortszeit Stärke Spitze Richtung
km/h Bft. km/h Grad Sektor
Fr, 14.06. 7:00 15 3 22 150° SO
Fr, 14.06. 6:50 15 3 - 150° SO
Fr, 14.06. 6:40 15 3 - 150° SO
Fr, 14.06. 6:30 14 3 22 140° SO
Fr, 14.06. 6:20 14 3 - 140° SO
Fr, 14.06. 6:10 13 3 - 140° SO
Fr, 14.06. 6:00 13 3 19 140° SO
Fr, 14.06. 5:30 13 3 19 140° SO
Fr, 14.06. 5:00 11 2 22 160° S
Fr, 14.06. 4:30 13 3 22 160° S
Fr, 14.06. 4:00 14 3 22 170° S
Ortszeit Untergrenze Bedeckung Gattung
total tief tief mittel hoch
Fr, 14.06. 2:00 3600 m 7/8 7/8 - - -
Do, 13.06. 20:00 5100 m 8/8 8/8 - - -
Do, 13.06. 14:00 480 m 8/8 8/8 - - -
Do, 13.06. 8:00 540 m 8/8 8/8 - - -
Do, 13.06. 2:00 810 m 3/8 3/8 - - -
Mi, 12.06. 20:00 900 m 8/8 4/8 - - -
Mi, 12.06. 14:00 750 m 7/8 7/8 - - -
Mi, 12.06. 8:00 960 m 5/8 1/8 - - -
Ortszeit Bedeckungsgrad in Achtel und Wolkenuntergrenze
Fr, 14.06. 7:00 8(2400m)
Fr, 14.06. 6:50 8(2400m)
Fr, 14.06. 6:40 8
Fr, 14.06. 6:30 8(2700m)
Fr, 14.06. 6:20 8(2700m)
Fr, 14.06. 6:10 8
Fr, 14.06. 6:00 1(1800m) 7(3000m)
Fr, 14.06. 5:30 4(1800m) 8(3000m) 8(5400m)
Fr, 14.06. 5:00 1(1500m) 8(3000m)
Fr, 14.06. 4:30 1(750m) 7(2100m) 8(3300m)
Fr, 14.06. 4:00 6(1500m) 8(3300m)
Ortszeit Luftdruck NN (hPa) Tendenz (hPa in 3 Std.)
Fr, 14.06. 2:00 1010 - 2,1
Do, 13.06. 20:00 1013 - 1,7
Do, 13.06. 14:00 1016 - 0,8
Do, 13.06. 8:00 1016 - 0,3
Do, 13.06. 2:00 1017 - 0,1
Mi, 12.06. 20:00 1017 - 0,1
Mi, 12.06. 14:00 1017 + 0,8
Mi, 12.06. 8:00 1016 + 0,7
Ortszeit Luftdruck NN (hPa) Tendenz (hPa in 3 Std.)
Fr, 14.06. 7:00 1007 - 1,7
Fr, 14.06. 6:50 1007 keine Meldung
Fr, 14.06. 6:40 1007 keine Meldung
Fr, 14.06. 6:30 1007 - 1,5
Fr, 14.06. 6:20 1007 keine Meldung
Fr, 14.06. 6:10 1007 keine Meldung
Fr, 14.06. 6:00 1008 - 1,6
Fr, 14.06. 5:30 1008 - 1,8
Fr, 14.06. 5:00 1009 - 1,6
Fr, 14.06. 4:30 1009 - 1,9
Fr, 14.06. 4:00 1009 - 2,0
Ortszeit Schneehöhe (cm)
Fr, 14.06. 2:00 0
Do, 13.06. 20:00 0
Do, 13.06. 14:00 0
Do, 13.06. 8:00 0
Do, 13.06. 2:00 0
Mi, 12.06. 20:00 0
Mi, 12.06. 14:00 0
Mi, 12.06. 8:00 0
Ortszeit Schneehöhe (cm)
Fr, 14.06. 7:00 0
Fr, 14.06. 6:50 0
Fr, 14.06. 6:40 -
Fr, 14.06. 6:30 0
Fr, 14.06. 6:20 0
Fr, 14.06. 6:10 -
Fr, 14.06. 6:00 0
Fr, 14.06. 5:30 0
Fr, 14.06. 5:00 0
Fr, 14.06. 4:30 0
Fr, 14.06. 4:00 0
Link zu dieser Seite / Seite empfehlen

Das Wetter in ...